Time;durP1;ratioP1;P1;durP2;ratioP2;P2;SDS_P1;SDS_P2;PMS_P1;PMS_P2;Temp;Humidity;BMP_temperature;BMP_pressure;BME280_temperature;BME280_humidity;BME280_pressure;Samples;Min_cycle;Max_cycle;Signal;HPM_P1;HPM_P2
2023/04/03 00:01:42;;;;;;;;;;;;;;;;;;5048652;28;20087;-61
2023/04/03 00:04:08;;;;;;;;;;;;;;;;;;5049242;28;19925;-61
2023/04/03 00:06:34;;;;;;;;;;;;;;;;;;5049488;28;20282;-61
2023/04/03 00:09:00;;;;;;;;;;;;;;;;;;5048684;28;20321;-60
2023/04/03 00:11:26;;;;;;;;;;;;;;;;;;5051472;28;19925;-61
2023/04/03 00:13:52;;;;;;;;;;;;;;;;;;5053170;28;19923;-60
2023/04/03 00:16:18;;;;;;;;;;;;;;;;;;5052063;28;20272;-60
2023/04/03 00:18:44;;;;;;;;;;;;;;;;;;5052993;28;19927;-60
2023/04/03 00:21:10;;;;;;;;;;;;;;;;;;5052706;28;19944;-61
2023/04/03 00:23:36;;;;;;;;;;;;;;;;;;5051981;28;19925;-59
2023/04/03 00:26:02;;;;;;;;;;;;;;;;;;5052821;28;19927;-59
2023/04/03 00:28:28;;;;;;;;;;;;;;;;;;5052567;28;19921;-61
2023/04/03 00:30:54;;;;;;;;;;;;;;;;;;5052101;28;19917;-61
2023/04/03 00:33:24;;;;;;;;;;;;;;;;;;5052624;28;19920;-60
2023/04/03 00:35:50;;;;;;;;;;;;;;;;;;5052339;28;20007;-61
2023/04/03 00:38:16;;;;;;;;;;;;;;;;;;5051950;28;20007;-61
2023/04/03 00:40:42;;;;;;;;;;;;;;;;;;5052262;28;20290;-60
2023/04/03 00:43:07;;;;;;;;;;;;;;;;;;5052567;28;19916;-60
2023/04/03 00:45:33;;;;;;;;;;;;;;;;;;5051841;28;19917;-60
2023/04/03 00:47:59;;;;;;;;;;;;;;;;;;5052363;28;19975;-60
2023/04/03 00:50:25;;;;;;;;;;;;;;;;;;5052243;28;19956;-60
2023/04/03 00:52:51;;;;;;;;;;;;;;;;;;5051828;28;19916;-61
2023/04/03 00:55:17;;;;;;;;;;;;;;;;;;5052187;28;19917;-60
2023/04/03 00:57:43;;;;;;;;;;;;;;;;;;5052296;28;19921;-59
2023/04/03 01:00:09;;;;;;;;;;;;;;;;;;5051452;28;19917;-60
2023/04/03 01:02:35;;;;;;;;;;;;;;;;;;5052487;28;19959;-61
2023/04/03 01:05:01;;;;;;;;;;;;;;;;;;5051879;28;19924;-61
2023/04/03 01:07:27;;;;;;;;;;;;;;;;;;5051449;28;19928;-61
2023/04/03 01:09:52;;;;;;;;;;;;;;;;;;5051848;28;19916;-60
2023/04/03 01:12:18;;;;;;;;;;;;;;;;;;5052194;28;20363;-60
2023/04/03 01:14:45;;;;;;;;;;;;;;;;;;5051293;28;20120;-60
2023/04/03 01:17:11;;;;;;;;;;;;;;;;;;5051975;28;20367;-60
2023/04/03 01:19:38;;;;;;;;;;;;;;;;;;5051698;28;19970;-59
2023/04/03 01:22:03;;;;;;;;;;;;;;;;;;5050651;28;19916;-60
2023/04/03 01:24:30;;;;;;;;;;;;;;;;;;5033265;28;19925;-60
2023/04/03 01:26:55;;;;;;;;;;;;;;;;;;5051567;28;19921;-60
2023/04/03 01:29:21;;;;;;;;;;;;;;;;;;5050818;28;20463;-60
2023/04/03 01:31:47;;;;;;;;;;;;;;;;;;5051399;28;20003;-61
2023/04/03 01:34:13;;;;;;;;;;;;;;;;;;5051470;28;19973;-61
2023/04/03 01:36:39;;;;;;;;;;;;;;;;;;5051038;28;20320;-59
2023/04/03 01:39:05;;;;;;;;;;;;;;;;;;5051530;28;19920;-60
2023/04/03 01:41:32;;;;;;;;;;;;;;;;;;5051319;28;20007;-60
2023/04/03 01:43:58;;;;;;;;;;;;;;;;;;5050632;28;19925;-60
2023/04/03 01:46:23;;;;;;;;;;;;;;;;;;5051255;28;19916;-60
2023/04/03 01:48:50;;;;;;;;;;;;;;;;;;5051194;28;19921;-60
2023/04/03 01:51:15;;;;;;;;;;;;;;;;;;5050431;28;20329;-60
2023/04/03 01:53:41;;;;;;;;;;;;;;;;;;5051180;28;19917;-60
2023/04/03 01:56:07;;;;;;;;;;;;;;;;;;5051210;28;19920;-60
2023/04/03 01:58:33;;;;;;;;;;;;;;;;;;5050568;28;19921;-60
2023/04/03 02:00:59;;;;;;;;;;;;;;;;;;5050840;28;19927;-61
2023/04/03 02:03:25;;;;;;;;;;;;;;;;;;5050823;28;19963;-61
2023/04/03 02:05:51;;;;;;;;;;;;;;;;;;5049970;28;19916;-60
2023/04/03 02:08:20;;;;;;;;;;;;;;;;;;5050249;28;19992;-60
2023/04/03 02:10:45;;;;;;;;;;;;;;;;;;5050870;28;19917;-60
2023/04/03 02:13:11;;;;;;;;;;;;;;;;;;5051005;28;19916;-60
2023/04/03 02:15:37;;;;;;;;;;;;;;;;;;5050090;28;19967;-60
2023/04/03 02:18:03;;;;;;;;;;;;;;;;;;5050694;28;19960;-60
2023/04/03 02:20:29;;;;;;;;;;;;;;;;;;5050388;28;19923;-60
2023/04/03 02:22:55;;;;;;;;;;;;;;;;;;5049975;28;19920;-60
2023/04/03 02:25:21;;;;;;;;;;;;;;;;;;5050219;28;19955;-59
2023/04/03 02:27:47;;;;;;;;;;;;;;;;;;5050620;28;19925;-60
2023/04/03 02:30:14;;;;;;;;;;;;;;;;;;5049895;28;20348;-60
2023/04/03 02:32:40;;;;;;;;;;;;;;;;;;5050152;28;20381;-60
2023/04/03 02:35:06;;;;;;;;;;;;;;;;;;5050314;28;20174;-61
2023/04/03 02:37:32;;;;;;;;;;;;;;;;;;5049847;28;20309;-61
2023/04/03 02:39:58;;;;;;;;;;;;;;;;;;5050094;28;19950;-60
2023/04/03 02:42:24;;;;;;;;;;;;;;;;;;5050312;28;20184;-60
2023/04/03 02:44:50;;;;;;;;;;;;;;;;;;5049655;28;20011;-60
2023/04/03 02:47:16;;;;;;;;;;;;;;;;;;5050336;28;20007;-60
2023/04/03 02:49:44;;;;;;;;;;;;;;;;;;5050213;28;19921;-60
2023/04/03 02:52:10;;;;;;;;;;;;;;;;;;5049432;28;19917;-60
2023/04/03 02:54:36;;;;;;;;;;;;;;;;;;5050487;28;19974;-59
2023/04/03 02:57:02;;;;;;;;;;;;;;;;;;5050082;28;19924;-60
2023/04/03 02:59:28;;;;;;;;;;;;;;;;;;5049430;28;19922;-60
2023/04/03 03:01:55;;;;;;;;;;;;;;;;;;5050180;28;19917;-60
2023/04/03 03:04:21;;;;;;;;;;;;;;;;;;5049885;28;20021;-60
2023/04/03 03:06:47;;;;;;;;;;;;;;;;;;5049350;28;19979;-60
2023/04/03 03:09:13;;;;;;;;;;;;;;;;;;5049845;28;19920;-60
2023/04/03 03:11:39;;;;;;;;;;;;;;;;;;5049819;28;19917;-60
2023/04/03 03:14:05;;;;;;;;;;;;;;;;;;5049368;28;19923;-60
2023/04/03 03:16:31;;;;;;;;;;;;;;;;;;5031981;28;19921;-60
2023/04/03 03:18:56;;;;;;;;;;;;;;;;;;5049721;28;19931;-60
2023/04/03 03:21:22;;;;;;;;;;;;;;;;;;5048942;28;20405;-60
2023/04/03 03:23:48;;;;;;;;;;;;;;;;;;5049254;28;19927;-60
2023/04/03 03:26:14;;;;;;;;;;;;;;;;;;5049999;28;19924;-60
2023/04/03 03:28:40;;;;;;;;;;;;;;;;;;5049121;28;19920;-60
2023/04/03 03:31:06;;;;;;;;;;;;;;;;;;5049660;28;19917;-61
2023/04/03 03:33:32;;;;;;;;;;;;;;;;;;5049601;28;20690;-61
2023/04/03 03:35:58;;;;;;;;;;;;;;;;;;5049388;28;20221;-60
2023/04/03 03:38:24;;;;;;;;;;;;;;;;;;5049463;28;20497;-60
2023/04/03 03:40:50;;;;;;;;;;;;;;;;;;5049649;28;19924;-60
2023/04/03 03:43:15;;;;;;;;;;;;;;;;;;5049085;28;19921;-59
2023/04/03 03:45:41;;;;;;;;;;;;;;;;;;5052254;28;19943;-60
2023/04/03 03:48:07;;;;;;;;;;;;;;;;;;5053512;28;19960;-60
2023/04/03 03:50:33;;;;;;;;;;;;;;;;;;5052867;28;20007;-60
2023/04/03 03:52:59;;;;;;;;;;;;;;;;;;5053488;28;20378;-60
2023/04/03 03:55:25;;;;;;;;;;;;;;;;;;5053675;28;20291;-60
2023/04/03 03:57:51;;;;;;;;;;;;;;;;;;5052996;28;19923;-60
2023/04/03 04:00:17;;;;;;;;;;;;;;;;;;5053218;28;19967;-60
2023/04/03 04:02:43;;;;;;;;;;;;;;;;;;5053334;28;20290;-60
2023/04/03 04:05:09;;;;;;;;;;;;;;;;;;5052532;28;19921;-60
2023/04/03 04:07:35;;;;;;;;;;;;;;;;;;5053213;28;19948;-59
2023/04/03 04:10:01;;;;;;;;;;;;;;;;;;5052796;28;20340;-60
2023/04/03 04:12:27;;;;;;;;;;;;;;;;;;5052443;28;19964;-59
2023/04/03 04:14:53;;;;;;;;;;;;;;;;;;5053129;28;19968;-60
2023/04/03 04:17:19;;;;;;;;;;;;;;;;;;5052921;28;19923;-60
2023/04/03 04:19:45;;;;;;;;;;;;;;;;;;5052328;28;19944;-61
2023/04/03 04:22:11;;;;;;;;;;;;;;;;;;5052728;28;20556;-60
2023/04/03 04:24:37;;;;;;;;;;;;;;;;;;5052663;28;19998;-60
2023/04/03 04:27:03;;;;;;;;;;;;;;;;;;5052219;28;19929;-60
2023/04/03 04:29:29;;;;;;;;;;;;;;;;;;5052720;28;19921;-60
2023/04/03 04:31:55;;;;;;;;;;;;;;;;;;5052552;28;19923;-61
2023/04/03 04:34:20;;;;;;;;;;;;;;;;;;5052210;28;19923;-60
2023/04/03 04:36:46;;;;;;;;;;;;;;;;;;5053026;28;19925;-60
2023/04/03 04:39:12;;;;;;;;;;;;;;;;;;5052566;28;19923;-60
2023/04/03 04:41:38;;;;;;;;;;;;;;;;;;5052226;28;19920;-60
2023/04/03 04:44:04;;;;;;;;;;;;;;;;;;5052547;28;19928;-60
2023/04/03 04:46:30;;;;;;;;;;;;;;;;;;5053051;28;19921;-60
2023/04/03 04:48:56;;;;;;;;;;;;;;;;;;5053372;28;19916;-60
2023/04/03 04:51:22;;;;;;;;;;;;;;;;;;5053986;28;19991;-60
2023/04/03 04:53:48;;;;;;;;;;;;;;;;;;5054072;28;19920;-60
2023/04/03 04:56:14;;;;;;;;;;;;;;;;;;5052035;28;19917;-60
2023/04/03 04:58:40;;;;;;;;;;;;;;;;;;5053282;28;19970;-60
2023/04/03 05:01:06;;;;;;;;;;;;;;;;;;5053848;28;20317;-60
2023/04/03 05:03:32;;;;;;;;;;;;;;;;;;5053397;28;19923;-60
2023/04/03 05:05:58;;;;;;;;;;;;;;;;;;5052743;28;19939;-61
2023/04/03 05:08:24;;;;;;;;;;;;;;;;;;5053145;28;19921;-60
2023/04/03 05:10:50;;;;;;;;;;;;;;;;;;5053541;28;19921;-59
2023/04/03 05:13:16;;;;;;;;;;;;;;;;;;5052728;28;19927;-60
2023/04/03 05:15:42;;;;;;;;;;;;;;;;;;5053214;28;19925;-59
2023/04/03 05:18:08;;;;;;;;;;;;;;;;;;5053262;28;19920;-60
2023/04/03 05:20:34;;;;;;;;;;;;;;;;;;5052747;28;19939;-59
2023/04/03 05:23:03;;;;;;;;;;;;;;;;;;5053050;28;19972;-60
2023/04/03 05:25:29;;;;;;;;;;;;;;;;;;5053093;28;20030;-60
2023/04/03 05:27:55;;;;;;;;;;;;;;;;;;5052792;28;19921;-60
2023/04/03 05:30:21;;;;;;;;;;;;;;;;;;5052922;28;19927;-60
2023/04/03 05:32:47;;;;;;;;;;;;;;;;;;5053265;28;19924;-60
2023/04/03 05:35:13;;;;;;;;;;;;;;;;;;5052748;28;19921;-60
2023/04/03 05:37:39;;;;;;;;;;;;;;;;;;5052960;28;19921;-59
2023/04/03 05:40:05;;;;;;;;;;;;;;;;;;5053096;28;19946;-60
2023/04/03 05:42:31;;;;;;;;;;;;;;;;;;5052478;28;19916;-59
2023/04/03 05:44:57;;;;;;;;;;;;;;;;;;5053045;28;20310;-60
2023/04/03 05:47:23;;;;;;;;;;;;;;;;;;5052868;28;19916;-59
2023/04/03 05:49:49;;;;;;;;;;;;;;;;;;5052199;28;19959;-60
2023/04/03 05:52:15;;;;;;;;;;;;;;;;;;5052994;28;19916;-60
2023/04/03 05:54:41;;;;;;;;;;;;;;;;;;5052697;28;19927;-60
2023/04/03 05:57:07;;;;;;;;;;;;;;;;;;5052150;28;20004;-60
2023/04/03 05:59:33;;;;;;;;;;;;;;;;;;5052760;28;19923;-62
2023/04/03 06:01:59;;;;;;;;;;;;;;;;;;5052647;28;19920;-60
2023/04/03 06:04:25;;;;;;;;;;;;;;;;;;5051961;28;19955;-60
2023/04/03 06:06:51;;;;;;;;;;;;;;;;;;5052406;28;20009;-60
2023/04/03 06:09:17;;;;;;;;;;;;;;;;;;5051231;28;20018;-60
2023/04/03 06:11:43;;;;;;;;;;;;;;;;;;5051497;28;19974;-61
2023/04/03 06:14:09;;;;;;;;;;;;;;;;;;5051885;28;19950;-61
2023/04/03 06:16:35;;;;;;;;;;;;;;;;;;5052036;28;19973;-60
2023/04/03 06:19:02;;;;;;;;;;;;;;;;;;5051644;28;19924;-60
2023/04/03 06:21:28;;;;;;;;;;;;;;;;;;5052175;28;19920;-60
2023/04/03 06:23:54;;;;;;;;;;;;;;;;;;5051011;28;20417;-62
2023/04/03 06:26:20;;;;;;;;;;;;;;;;;;5043453;28;19967;-64
2023/04/03 06:28:46;;;;;;;;;;;;;;;;;;5048953;28;20386;-63
2023/04/03 06:31:12;;;;;;;;;;;;;;;;;;5051027;28;19916;-63
2023/04/03 06:33:38;;;;;;;;;;;;;;;;;;5049800;28;19928;-63
2023/04/03 06:36:04;;;;;;;;;;;;;;;;;;5027706;28;20603;-64
2023/04/03 06:38:30;;;;;;;;;;;;;;;;;;5049266;28;20021;-63
2023/04/03 06:40:56;;;;;;;;;;;;;;;;;;5049685;28;20007;-64
2023/04/03 06:43:22;;;;;;;;;;;;;;;;;;5046331;28;19917;-63
2023/04/03 06:45:48;;;;;;;;;;;;;;;;;;5050321;28;19921;-64
2023/04/03 06:48:15;;;;;;;;;;;;;;;;;;5048478;28;19939;-64
2023/04/03 06:50:41;;;;;;;;;;;;;;;;;;5048714;28;20011;-62
2023/04/03 06:53:07;;;;;;;;;;;;;;;;;;5048737;28;20016;-64
2023/04/03 06:55:33;;;;;;;;;;;;;;;;;;5046935;28;19921;-63
2023/04/03 06:57:59;;;;;;;;;;;;;;;;;;5042795;28;19917;-65
2023/04/03 07:00:25;;;;;;;;;;;;;;;;;;5048738;28;19921;-64
2023/04/03 07:02:52;;;;;;;;;;;;;;;;;;5049706;28;19924;-65
2023/04/03 07:05:18;;;;;;;;;;;;;;;;;;5049671;28;19924;-64
2023/04/03 07:07:44;;;;;;;;;;;;;;;;;;5043303;28;20370;-64
2023/04/03 07:10:11;;;;;;;;;;;;;;;;;;5040441;28;20006;-64
2023/04/03 07:12:37;;;;;;;;;;;;;;;;;;5049390;28;21152;-64
2023/04/03 07:15:03;;;;;;;;;;;;;;;;;;5047764;28;20298;-63
2023/04/03 07:17:29;;;;;;;;;;;;;;;;;;5047080;28;19920;-63
2023/04/03 07:19:55;;;;;;;;;;;;;;;;;;5049332;28;19924;-63
2023/04/03 07:22:21;;;;;;;;;;;;;;;;;;5049013;28;19921;-63
2023/04/03 07:24:47;;;;;;;;;;;;;;;;;;5040984;28;19978;-61
2023/04/03 07:27:13;;;;;;;;;;;;;;;;;;5049067;28;19991;-62
2023/04/03 07:29:39;;;;;;;;;;;;;;;;;;5049299;28;19939;-62
2023/04/03 07:32:06;;;;;;;;;;;;;;;;;;5049160;28;19920;-63
2023/04/03 07:34:32;;;;;;;;;;;;;;;;;;5049255;28;19920;-64
2023/04/03 07:36:58;;;;;;;;;;;;;;;;;;5047638;28;20306;-63
2023/04/03 07:39:24;;;;;;;;;;;;;;;;;;5048336;28;20121;-61
2023/04/03 07:41:50;;;;;;;;;;;;;;;;;;5047609;28;19917;-62
2023/04/03 07:44:16;;;;;;;;;;;;;;;;;;5047238;28;19932;-62
2023/04/03 07:46:42;;;;;;;;;;;;;;;;;;5047422;28;19920;-62
2023/04/03 07:49:08;;;;;;;;;;;;;;;;;;5048887;28;19920;-62
2023/04/03 07:51:34;;;;;;;;;;;;;;;;;;5048293;28;19920;-61
2023/04/03 07:54:00;;;;;;;;;;;;;;;;;;5048125;28;19947;-62
2023/04/03 07:56:26;;;;;;;;;;;;;;;;;;5043374;28;19962;-60
2023/04/03 07:58:53;;;;;;;;;;;;;;;;;;5049295;28;20286;-61
2023/04/03 08:01:19;;;;;;;;;;;;;;;;;;5045097;28;20389;-63
2023/04/03 08:03:45;;;;;;;;;;;;;;;;;;5031248;28;20609;-63
2023/04/03 08:06:12;;;;;;;;;;;;;;;;;;5046118;28;20010;-65
2023/04/03 08:08:38;;;;;;;;;;;;;;;;;;5041874;28;19921;-66
2023/04/03 08:11:05;;;;;;;;;;;;;;;;;;5043921;28;19920;-66
2023/04/03 08:13:31;;;;;;;;;;;;;;;;;;5046446;28;20363;-66
2023/04/03 08:15:58;;;;;;;;;;;;;;;;;;5048010;28;20015;-66
2023/04/03 08:18:25;;;;;;;;;;;;;;;;;;5043755;28;19970;-65
2023/04/03 08:20:51;;;;;;;;;;;;;;;;;;5037903;28;20011;-65
2023/04/03 08:23:17;;;;;;;;;;;;;;;;;;5045925;28;20019;-66
2023/04/03 08:25:43;;;;;;;;;;;;;;;;;;5044577;28;19931;-64
2023/04/03 08:28:09;;;;;;;;;;;;;;;;;;5048030;28;19916;-64
2023/04/03 08:30:35;;;;;;;;;;;;;;;;;;5046411;28;19921;-64
2023/04/03 08:33:01;;;;;;;;;;;;;;;;;;5046255;28;19920;-64
2023/04/03 08:35:27;;;;;;;;;;;;;;;;;;5051325;28;19971;-64
2023/04/03 08:37:53;;;;;;;;;;;;;;;;;;5047790;28;19949;-65
2023/04/03 08:40:20;;;;;;;;;;;;;;;;;;5048863;28;19924;-66
2023/04/03 08:42:46;;;;;;;;;;;;;;;;;;5051273;28;19940;-65
2023/04/03 08:45:12;;;;;;;;;;;;;;;;;;5052239;28;20355;-64
2023/04/03 08:47:38;;;;;;;;;;;;;;;;;;5049543;28;19921;-66
2023/04/03 08:50:04;;;;;;;;;;;;;;;;;;5032676;28;20003;-64
2023/04/03 08:52:30;;;;;;;;;;;;;;;;;;5039466;28;19999;-64
2023/04/03 08:54:56;;;;;;;;;;;;;;;;;;5037698;28;19920;-66
2023/04/03 08:57:22;;;;;;;;;;;;;;;;;;5039954;28;20284;-66
2023/04/03 08:59:48;;;;;;;;;;;;;;;;;;5039626;28;19967;-66
2023/04/03 09:02:14;;;;;;;;;;;;;;;;;;5048566;28;20007;-66
2023/04/03 09:04:40;;;;;;;;;;;;;;;;;;5044769;28;19925;-66
2023/04/03 09:07:06;;;;;;;;;;;;;;;;;;5050717;28;19921;-66
2023/04/03 09:09:32;;;;;;;;;;;;;;;;;;5042538;28;19916;-66
2023/04/03 09:11:58;;;;;;;;;;;;;;;;;;5034191;28;19921;-65
2023/04/03 09:14:24;;;;;;;;;;;;;;;;;;5051223;28;19951;-66
2023/04/03 09:16:51;;;;;;;;;;;;;;;;;;5050096;28;20572;-67
2023/04/03 09:19:17;;;;;;;;;;;;;;;;;;5046047;28;20379;-66
2023/04/03 09:21:43;;;;;;;;;;;;;;;;;;5047560;28;19978;-66
2023/04/03 09:24:09;;;;;;;;;;;;;;;;;;5041269;28;19924;-66
2023/04/03 09:26:35;;;;;;;;;;;;;;;;;;5051356;28;19931;-65
2023/04/03 09:29:01;;;;;;;;;;;;;;;;;;5045817;28;19920;-66
2023/04/03 09:31:27;;;;;;;;;;;;;;;;;;5044389;28;19971;-65
2023/04/03 09:33:53;;;;;;;;;;;;;;;;;;5044164;28;19929;-65
2023/04/03 09:36:19;;;;;;;;;;;;;;;;;;5049363;28;20280;-65
2023/04/03 09:38:45;;;;;;;;;;;;;;;;;;5044994;28;19920;-67
2023/04/03 09:41:11;;;;;;;;;;;;;;;;;;5048035;28;19979;-67
2023/04/03 09:43:38;;;;;;;;;;;;;;;;;;5040877;28;19935;-67
2023/04/03 09:46:05;;;;;;;;;;;;;;;;;;5046826;28;20036;-66
2023/04/03 09:48:31;;;;;;;;;;;;;;;;;;5045056;28;19924;-68
2023/04/03 09:50:58;;;;;;;;;;;;;;;;;;5031943;28;19931;-67
2023/04/03 09:53:25;;;;;;;;;;;;;;;;;;5046772;28;19916;-66
2023/04/03 09:55:51;;;;;;;;;;;;;;;;;;5042961;28;20240;-66
2023/04/03 09:58:16;;;;;;;;;;;;;;;;;;5024954;28;20043;-66
2023/04/03 10:00:43;;;;;;;;;;;;;;;;;;5047409;28;20156;-65
2023/04/03 10:03:11;;;;;;;;;;;;;;;;;;5040311;28;19921;-66
2023/04/03 10:05:38;;;;;;;;;;;;;;;;;;5043109;28;19929;-66
2023/04/03 10:08:04;;;;;;;;;;;;;;;;;;5048172;28;20584;-66
2023/04/03 10:10:30;;;;;;;;;;;;;;;;;;5045700;28;19921;-66
2023/04/03 10:12:56;;;;;;;;;;;;;;;;;;5047842;28;19923;-66
2023/04/03 10:15:22;;;;;;;;;;;;;;;;;;5049091;28;20012;-66
2023/04/03 10:17:48;;;;;;;;;;;;;;;;;;5049198;28;20011;-65
2023/04/03 10:20:14;;;;;;;;;;;;;;;;;;5047464;28;19920;-66
2023/04/03 10:22:40;;;;;;;;;;;;;;;;;;5043771;28;19929;-66
2023/04/03 10:25:06;;;;;;;;;;;;;;;;;;5041692;28;20473;-65
2023/04/03 10:27:32;;;;;;;;;;;;;;;;;;5037440;28;19943;-66
2023/04/03 10:29:58;;;;;;;;;;;;;;;;;;5045603;28;19944;-65
2023/04/03 10:32:24;;;;;;;;;;;;;;;;;;5045880;28;20268;-64
2023/04/03 10:34:50;;;;;;;;;;;;;;;;;;5047458;28;19981;-66
2023/04/03 10:37:16;;;;;;;;;;;;;;;;;;5018188;28;19967;-66
2023/04/03 10:39:42;;;;;;;;;;;;;;;;;;5050657;28;19920;-65
2023/04/03 10:42:08;;;;;;;;;;;;;;;;;;5050292;28;19925;-66
2023/04/03 10:44:34;;;;;;;;;;;;;;;;;;5038197;28;19924;-65
2023/04/03 10:47:00;;;;;;;;;;;;;;;;;;5044385;28;19916;-65
2023/04/03 10:49:27;;;;;;;;;;;;;;;;;;5047568;28;19939;-66
2023/04/03 10:51:53;;;;;;;;;;;;;;;;;;5048697;28;19917;-66
2023/04/03 10:54:19;;;;;;;;;;;;;;;;;;5044814;28;19990;-66
2023/04/03 10:56:45;;;;;;;;;;;;;;;;;;5050372;28;19966;-65
2023/04/03 10:59:11;;;;;;;;;;;;;;;;;;5042928;28;19916;-65
2023/04/03 11:01:37;;;;;;;;;;;;;;;;;;5035860;28;20018;-65
2023/04/03 11:04:03;;;;;;;;;;;;;;;;;;5049697;28;19917;-66
2023/04/03 11:06:29;;;;;;;;;;;;;;;;;;5049140;28;20294;-66
2023/04/03 11:08:56;;;;;;;;;;;;;;;;;;5049097;28;19920;-66
2023/04/03 11:11:22;;;;;;;;;;;;;;;;;;5027519;28;19917;-66
2023/04/03 11:13:48;;;;;;;;;;;;;;;;;;5043829;28;19920;-66
2023/04/03 11:16:14;;;;;;;;;;;;;;;;;;5035183;28;19963;-66
2023/04/03 11:18:40;;;;;;;;;;;;;;;;;;5045390;28;19943;-66
2023/04/03 11:21:06;;;;;;;;;;;;;;;;;;5039443;28;19920;-65
2023/04/03 11:23:32;;;;;;;;;;;;;;;;;;5040175;28;19920;-66
2023/04/03 11:25:58;;;;;;;;;;;;;;;;;;5041274;28;20299;-66
2023/04/03 11:28:26;;;;;;;;;;;;;;;;;;5044097;28;19921;-65
2023/04/03 11:30:52;;;;;;;;;;;;;;;;;;5047023;28;19975;-65
2023/04/03 11:33:18;;;;;;;;;;;;;;;;;;5041689;28;19928;-65
2023/04/03 11:35:44;;;;;;;;;;;;;;;;;;5047390;28;19928;-64
2023/04/03 11:38:10;;;;;;;;;;;;;;;;;;5047508;28;19920;-64
2023/04/03 11:40:36;;;;;;;;;;;;;;;;;;5044607;28;19944;-65
2023/04/03 11:43:02;;;;;;;;;;;;;;;;;;5031576;28;19920;-64
2023/04/03 11:45:28;;;;;;;;;;;;;;;;;;5047221;28;20015;-65
2023/04/03 11:47:54;;;;;;;;;;;;;;;;;;5043169;28;20110;-66
2023/04/03 11:50:20;;;;;;;;;;;;;;;;;;5032125;28;19917;-65
2023/04/03 11:52:48;;;;;;;;;;;;;;;;;;5042874;28;19952;-64
2023/04/03 11:55:13;;;;;;;;;;;;;;;;;;5043583;28;19931;-65
2023/04/03 11:57:39;;;;;;;;;;;;;;;;;;5044407;28;19924;-65
2023/04/03 12:00:05;;;;;;;;;;;;;;;;;;5048781;28;19942;-65
2023/04/03 12:02:32;;;;;;;;;;;;;;;;;;5045385;28;19962;-65
2023/04/03 12:04:58;;;;;;;;;;;;;;;;;;5030182;28;20023;-65
2023/04/03 12:07:24;;;;;;;;;;;;;;;;;;5048095;28;20003;-65
2023/04/03 12:09:50;;;;;;;;;;;;;;;;;;5046618;28;19920;-66
2023/04/03 12:12:16;;;;;;;;;;;;;;;;;;5043562;28;20024;-67
2023/04/03 12:14:42;;;;;;;;;;;;;;;;;;5046222;28;19917;-66
2023/04/03 12:17:08;;;;;;;;;;;;;;;;;;5053103;28;19987;-68
2023/04/03 12:19:34;;;;;;;;;;;;;;;;;;5044444;28;19917;-66
2023/04/03 12:22:00;;;;;;;;;;;;;;;;;;5043844;28;20077;-68
2023/04/03 12:24:26;;;;;;;;;;;;;;;;;;5045914;28;19920;-67
2023/04/03 12:26:52;;;;;;;;;;;;;;;;;;5044446;28;19920;-67
2023/04/03 12:29:18;;;;;;;;;;;;;;;;;;5041907;28;20302;-66
2023/04/03 12:31:44;;;;;;;;;;;;;;;;;;5049843;28;19917;-65
2023/04/03 12:34:10;;;;;;;;;;;;;;;;;;5060901;28;19966;-65
2023/04/03 12:36:36;;;;;;;;;;;;;;;;;;5046919;28;19948;-66
2023/04/03 12:39:03;;;;;;;;;;;;;;;;;;5051889;28;19916;-65
2023/04/03 12:41:29;;;;;;;;;;;;;;;;;;5051023;28;19920;-64
2023/04/03 12:43:55;;;;;;;;;;;;;;;;;;5052683;28;19917;-64
2023/04/03 12:46:21;;;;;;;;;;;;;;;;;;5053394;28;19931;-62
2023/04/03 12:48:47;;;;;;;;;;;;;;;;;;5033035;28;19925;-62
2023/04/03 12:51:13;;;;;;;;;;;;;;;;;;5052269;28;19916;-62
2023/04/03 12:53:39;;;;;;;;;;;;;;;;;;5053755;28;19917;-63
2023/04/03 12:56:05;;;;;;;;;;;;;;;;;;5053793;28;20014;-61
2023/04/03 12:58:33;;;;;;;;;;;;;;;;;;5052772;28;20003;-61
2023/04/03 13:00:59;;;;;;;;;;;;;;;;;;5052574;28;20005;-61
2023/04/03 13:03:26;;;;;;;;;;;;;;;;;;5052276;28;19916;-62
2023/04/03 13:05:52;;;;;;;;;;;;;;;;;;5051303;28;19924;-62
2023/04/03 13:08:19;;;;;;;;;;;;;;;;;;5052850;28;19923;-61
2023/04/03 13:10:45;;;;;;;;;;;;;;;;;;5052775;28;19920;-61
2023/04/03 13:13:11;;;;;;;;;;;;;;;;;;5052330;28;20545;-60
2023/04/03 13:15:37;;;;;;;;;;;;;;;;;;5052573;28;19952;-63
2023/04/03 13:18:03;;;;;;;;;;;;;;;;;;5051779;28;19996;-62
2023/04/03 13:20:29;;;;;;;;;;;;;;;;;;5052036;28;20063;-61
2023/04/03 13:22:55;;;;;;;;;;;;;;;;;;5052206;28;20007;-61
2023/04/03 13:25:21;;;;;;;;;;;;;;;;;;5052175;28;20007;-61
2023/04/03 13:27:47;;;;;;;;;;;;;;;;;;5051142;28;19916;-62
2023/04/03 13:30:13;;;;;;;;;;;;;;;;;;5052374;28;19924;-61
2023/04/03 13:32:39;;;;;;;;;;;;;;;;;;5052619;28;19920;-61
2023/04/03 13:35:06;;;;;;;;;;;;;;;;;;5051646;28;19983;-61
2023/04/03 13:37:32;;;;;;;;;;;;;;;;;;5052675;28;19923;-61
2023/04/03 13:39:58;;;;;;;;;;;;;;;;;;5052153;28;20271;-62
2023/04/03 13:42:23;;;;;;;;;;;;;;;;;;5051860;28;19942;-62
2023/04/03 13:44:50;;;;;;;;;;;;;;;;;;5052450;28;19930;-62
2023/04/03 13:47:16;;;;;;;;;;;;;;;;;;5052485;28;19917;-62
2023/04/03 13:49:42;;;;;;;;;;;;;;;;;;5051838;28;19921;-62
2023/04/03 13:52:08;;;;;;;;;;;;;;;;;;5034033;28;20007;-61
2023/04/03 13:54:34;;;;;;;;;;;;;;;;;;5050747;28;20048;-61
2023/04/03 13:57:00;;;;;;;;;;;;;;;;;;5051574;28;20003;-61
2023/04/03 13:59:26;;;;;;;;;;;;;;;;;;5051290;28;20626;-61
2023/04/03 14:01:52;;;;;;;;;;;;;;;;;;5051743;28;19920;-61
2023/04/03 14:04:18;;;;;;;;;;;;;;;;;;5051221;28;19974;-62
2023/04/03 14:06:45;;;;;;;;;;;;;;;;;;5051895;28;19921;-62
2023/04/03 14:09:11;;;;;;;;;;;;;;;;;;5051666;28;19924;-61
2023/04/03 14:11:36;;;;;;;;;;;;;;;;;;5050863;28;19920;-61
2023/04/03 14:14:04;;;;;;;;;;;;;;;;;;5051968;28;19970;-61
2023/04/03 14:16:30;;;;;;;;;;;;;;;;;;5051982;28;19924;-61
2023/04/03 14:18:56;;;;;;;;;;;;;;;;;;5051083;28;19921;-61
2023/04/03 14:21:22;;;;;;;;;;;;;;;;;;5051763;28;19975;-62
2023/04/03 14:23:48;;;;;;;;;;;;;;;;;;5051288;28;19951;-64
2023/04/03 14:26:16;;;;;;;;;;;;;;;;;;5050787;28;20346;-62
2023/04/03 14:28:42;;;;;;;;;;;;;;;;;;5051299;28;19917;-62
2023/04/03 14:31:08;;;;;;;;;;;;;;;;;;5050957;28;19924;-62
2023/04/03 14:33:35;;;;;;;;;;;;;;;;;;5050993;28;19924;-62
2023/04/03 14:36:02;;;;;;;;;;;;;;;;;;5051534;28;19924;-62
2023/04/03 14:38:28;;;;;;;;;;;;;;;;;;5051526;28;20066;-61
2023/04/03 14:40:54;;;;;;;;;;;;;;;;;;5050669;28;19999;-62
2023/04/03 14:43:20;;;;;;;;;;;;;;;;;;5051716;28;19921;-62
2023/04/03 14:45:46;;;;;;;;;;;;;;;;;;5051133;28;19931;-62
2023/04/03 14:48:12;;;;;;;;;;;;;;;;;;5050090;28;19921;-62
2023/04/03 14:50:38;;;;;;;;;;;;;;;;;;5051335;28;19925;-60
2023/04/03 14:53:04;;;;;;;;;;;;;;;;;;5051424;28;19917;-60
2023/04/03 14:55:30;;;;;;;;;;;;;;;;;;5051421;28;19920;-59
2023/04/03 14:57:56;;;;;;;;;;;;;;;;;;5051290;28;20644;-59
2023/04/03 15:00:22;;;;;;;;;;;;;;;;;;5051404;28;20107;-60
2023/04/03 15:02:48;;;;;;;;;;;;;;;;;;5051510;28;19978;-60
2023/04/03 15:05:14;;;;;;;;;;;;;;;;;;5050761;28;19935;-60
2023/04/03 15:07:40;;;;;;;;;;;;;;;;;;5050518;28;19924;-60
2023/04/03 15:10:06;;;;;;;;;;;;;;;;;;5051163;28;20303;-60
2023/04/03 15:12:32;;;;;;;;;;;;;;;;;;5032740;28;19920;-59
2023/04/03 15:14:58;;;;;;;;;;;;;;;;;;5051529;28;19925;-60
2023/04/03 15:17:24;;;;;;;;;;;;;;;;;;5051543;28;19927;-60
2023/04/03 15:19:50;;;;;;;;;;;;;;;;;;5050836;28;19971;-60
2023/04/03 15:22:16;;;;;;;;;;;;;;;;;;5050856;28;19936;-60
2023/04/03 15:24:42;;;;;;;;;;;;;;;;;;5051102;28;19927;-60
2023/04/03 15:27:08;;;;;;;;;;;;;;;;;;5050460;28;19943;-60
2023/04/03 15:29:34;;;;;;;;;;;;;;;;;;5051335;28;19966;-59
2023/04/03 15:32:00;;;;;;;;;;;;;;;;;;5051188;28;19921;-59
2023/04/03 15:34:26;;;;;;;;;;;;;;;;;;5050314;28;19970;-59
2023/04/03 15:36:52;;;;;;;;;;;;;;;;;;5050714;28;19956;-59
2023/04/03 15:39:18;;;;;;;;;;;;;;;;;;5051099;28;19928;-59
2023/04/03 15:41:45;;;;;;;;;;;;;;;;;;5053463;28;19916;-59
2023/04/03 15:44:12;;;;;;;;;;;;;;;;;;5054895;28;19935;-59
2023/04/03 15:46:38;;;;;;;;;;;;;;;;;;5055253;28;19921;-59
2023/04/03 15:49:04;;;;;;;;;;;;;;;;;;5054282;28;19947;-59
2023/04/03 15:51:30;;;;;;;;;;;;;;;;;;5054978;28;20039;-59
2023/04/03 15:53:56;;;;;;;;;;;;;;;;;;5055100;28;19923;-58
2023/04/03 15:56:22;;;;;;;;;;;;;;;;;;5054480;28;19947;-59
2023/04/03 15:58:48;;;;;;;;;;;;;;;;;;5054900;28;19929;-59
2023/04/03 16:01:14;;;;;;;;;;;;;;;;;;5054738;28;19917;-59
2023/04/03 16:03:44;;;;;;;;;;;;;;;;;;5054281;28;20378;-60
2023/04/03 16:06:10;;;;;;;;;;;;;;;;;;5054774;28;19974;-60
2023/04/03 16:08:36;;;;;;;;;;;;;;;;;;5054836;28;19916;-60
2023/04/03 16:11:02;;;;;;;;;;;;;;;;;;5054043;28;19964;-60
2023/04/03 16:13:28;;;;;;;;;;;;;;;;;;5054709;28;19924;-59
2023/04/03 16:15:54;;;;;;;;;;;;;;;;;;5054436;28;19952;-60
2023/04/03 16:18:20;;;;;;;;;;;;;;;;;;5053980;28;19920;-60
2023/04/03 16:20:46;;;;;;;;;;;;;;;;;;5054586;28;20015;-60
2023/04/03 16:23:12;;;;;;;;;;;;;;;;;;5054110;28;19921;-60
2023/04/03 16:25:38;;;;;;;;;;;;;;;;;;5053542;28;19929;-60
2023/04/03 16:28:04;;;;;;;;;;;;;;;;;;5054381;28;20305;-60
2023/04/03 16:30:30;;;;;;;;;;;;;;;;;;5054005;28;19920;-60
2023/04/03 16:32:56;;;;;;;;;;;;;;;;;;5053711;28;20382;-59
2023/04/03 16:35:22;;;;;;;;;;;;;;;;;;5054212;28;19921;-59
2023/04/03 16:37:48;;;;;;;;;;;;;;;;;;5053938;28;19921;-59